Time;durP1;ratioP1;P1;durP2;ratioP2;P2;SDS_P1;SDS_P2;PMS_P1;PMS_P2;Temp;Humidity;BMP_temperature;BMP_pressure;BME280_temperature;BME280_humidity;BME280_pressure;Samples;Min_cycle;Max_cycle;Signal;HPM_P1;HPM_P2
2023/07/15 00:01:36;;;;;;;8.35;7.18;;;;;;;;;;5034145;28;20443;-76
2023/07/15 00:04:02;;;;;;;8.60;6.80;;;;;;;;;;5032577;28;20033;-76
2023/07/15 00:06:28;;;;;;;8.88;7.57;;;;;;;;;;5034883;28;20128;-76
2023/07/15 00:08:55;;;;;;;8.52;7.20;;;;;;;;;;5024865;28;20041;-76
2023/07/15 00:11:32;;;;;;;7.82;6.57;;;;;;;;;;5034664;28;20495;-76
2023/07/15 00:13:59;;;;;;;9.40;7.30;;;;;;;;;;5034258;28;20049;-76
2023/07/15 00:16:26;;;;;;;8.93;7.20;;;;;;;;;;5023378;28;20048;-76
2023/07/15 00:18:52;;;;;;;9.63;7.80;;;;;;;;;;5019782;28;20078;-76
2023/07/15 00:21:20;;;;;;;10.15;7.55;;;;;;;;;;5034499;28;20041;-76
2023/07/15 00:23:46;;;;;;;11.02;7.97;;;;;;;;;;5030659;28;20064;-76
2023/07/15 00:26:12;;;;;;;12.52;7.85;;;;;;;;;;5029260;28;20046;-76
2023/07/15 00:28:38;;;;;;;10.27;7.68;;;;;;;;;;5032509;28;20057;-76
2023/07/15 00:31:13;;;;;;;10.77;8.45;;;;;;;;;;5034277;28;20041;-76
2023/07/15 00:33:40;;;;;;;14.52;8.40;;;;;;;;;;5032825;28;20439;-76
2023/07/15 00:36:06;;;;;;;11.00;8.55;;;;;;;;;;5034053;28;20053;-76
2023/07/15 00:38:32;;;;;;;8.60;7.70;;;;;;;;;;5032558;28;20042;-76
2023/07/15 00:40:58;;;;;;;10.15;7.97;;;;;;;;;;5034027;28;20052;-76
2023/07/15 00:43:43;;;;;;;9.88;7.72;;;;;;;;;;5030281;28;20044;-76
2023/07/15 00:46:19;;;;;;;8.47;7.40;;;;;;;;;;5034032;28;20050;-76
2023/07/15 00:49:00;;;;;;;10.27;7.88;;;;;;;;;;5034147;28;20084;-74
2023/07/15 00:51:26;;;;;;;8.30;7.40;;;;;;;;;;5033337;28;20045;-74
2023/07/15 00:53:54;;;;;;;12.38;7.95;;;;;;;;;;5033367;28;20071;-74
2023/07/15 00:56:21;;;;;;;9.30;7.70;;;;;;;;;;5033926;28;20045;-74
2023/07/15 00:58:48;;;;;;;8.68;7.20;;;;;;;;;;5023259;28;20037;-74
2023/07/15 01:01:14;;;;;;;10.65;7.60;;;;;;;;;;5033998;28;20044;-74
2023/07/15 01:03:40;;;;;;;8.63;7.43;;;;;;;;;;5033110;28;20175;-75
2023/07/15 01:06:07;;;;;;;9.63;7.32;;;;;;;;;;5033207;28;20048;-76
2023/07/15 01:08:33;;;;;;;10.18;7.32;;;;;;;;;;5032123;28;20046;-76
2023/07/15 01:10:59;;;;;;;11.32;7.32;;;;;;;;;;5032717;28;20075;-76
2023/07/15 01:13:25;;;;;;;8.07;6.57;;;;;;;;;;5032814;28;20041;-76
2023/07/15 01:15:51;;;;;;;8.25;6.10;;;;;;;;;;5031767;28;20038;-76
2023/07/15 01:18:17;;;;;;;12.75;6.78;;;;;;;;;;5033388;28;20515;-76
2023/07/15 01:20:43;;;;;;;8.30;5.70;;;;;;;;;;5013439;28;20049;-76
2023/07/15 01:23:09;;;;;;;7.05;5.78;;;;;;;;;;5024552;28;20084;-76
2023/07/15 01:25:35;;;;;;;6.70;5.70;;;;;;;;;;5023706;28;20073;-76
2023/07/15 01:28:02;;;;;;;7.45;5.65;;;;;;;;;;5033141;28;20496;-76
2023/07/15 01:30:29;;;;;;;6.22;5.20;;;;;;;;;;5033034;28;20107;-76
2023/07/15 01:32:56;;;;;;;8.85;5.95;;;;;;;;;;5033157;28;20100;-76
2023/07/15 01:35:22;;;;;;;7.55;5.00;;;;;;;;;;5034032;28;20049;-76
2023/07/15 01:37:48;;;;;;;6.50;5.30;;;;;;;;;;5033992;28;20080;-76
2023/07/15 01:40:14;;;;;;;7.25;4.93;;;;;;;;;;5033966;28;20128;-76
2023/07/15 01:42:40;;;;;;;7.88;5.20;;;;;;;;;;5032811;28;20072;-76
2023/07/15 01:45:10;;;;;;;6.88;4.95;;;;;;;;;;5016487;28;20046;-76
2023/07/15 01:47:36;;;;;;;7.68;5.07;;;;;;;;;;5013328;28;20065;-76
2023/07/15 01:50:05;;;;;;;6.32;4.55;;;;;;;;;;5013493;28;20362;-76
2023/07/15 01:52:31;;;;;;;7.20;4.53;;;;;;;;;;5013823;28;20053;-76
2023/07/15 01:54:57;;;;;;;5.30;4.47;;;;;;;;;;5028103;28;20042;-76
2023/07/15 01:57:23;;;;;;;5.40;4.22;;;;;;;;;;5032074;28;20046;-76
2023/07/15 01:59:49;;;;;;;7.68;4.43;;;;;;;;;;5013619;28;20073;-76
2023/07/15 02:02:15;;;;;;;7.95;4.75;;;;;;;;;;5017307;28;20046;-76
2023/07/15 02:04:41;;;;;;;5.93;4.47;;;;;;;;;;5018070;28;20129;-76
2023/07/15 02:07:07;;;;;;;6.28;4.10;;;;;;;;;;5030835;28;20137;-76
2023/07/15 02:09:34;;;;;;;6.00;4.13;;;;;;;;;;5037422;28;20069;-76
2023/07/15 02:12:00;;;;;;;7.35;4.45;;;;;;;;;;5035035;28;20057;-75
2023/07/15 02:14:26;;;;;;;6.97;4.18;;;;;;;;;;5036370;28;20053;-75
2023/07/15 02:16:52;;;;;;;4.78;3.80;;;;;;;;;;5021406;28;20042;-75
2023/07/15 02:19:18;;;;;;;4.80;3.88;;;;;;;;;;5017270;28;20069;-75
2023/07/15 02:21:45;;;;;;;5.78;4.03;;;;;;;;;;5030003;28;20042;-75
2023/07/15 02:24:11;;;;;;;7.85;4.38;;;;;;;;;;5036020;28;20049;-75
2023/07/15 02:26:37;;;;;;;5.28;4.20;;;;;;;;;;5036028;28;20135;-75
2023/07/15 02:29:03;;;;;;;5.05;3.80;;;;;;;;;;5036457;28;20510;-75
2023/07/15 02:31:29;;;;;;;6.80;4.00;;;;;;;;;;5032812;28;20498;-75
2023/07/15 02:33:55;;;;;;;7.22;3.92;;;;;;;;;;5036204;28;20044;-75
2023/07/15 02:36:21;;;;;;;7.03;3.90;;;;;;;;;;5032000;28;20041;-75
2023/07/15 02:38:47;;;;;;;8.63;4.57;;;;;;;;;;5032093;28;20407;-75
2023/07/15 02:41:13;;;;;;;8.27;4.70;;;;;;;;;;5035807;28;20052;-75
2023/07/15 02:43:39;;;;;;;7.82;4.45;;;;;;;;;;5035358;28;20120;-75
2023/07/15 02:46:06;;;;;;;5.55;4.22;;;;;;;;;;5033793;28;20077;-75
2023/07/15 02:48:32;;;;;;;7.20;4.40;;;;;;;;;;5036279;28;20116;-75
2023/07/15 02:50:58;;;;;;;5.15;3.80;;;;;;;;;;5035939;28;20053;-75
2023/07/15 02:53:24;;;;;;;6.85;4.03;;;;;;;;;;5033438;28;20388;-75
2023/07/15 02:55:51;;;;;;;5.78;3.83;;;;;;;;;;5034157;28;20041;-75
2023/07/15 02:58:20;;;;;;;5.55;3.50;;;;;;;;;;5036106;28;20100;-75
2023/07/15 03:00:46;;;;;;;5.53;3.70;;;;;;;;;;5035632;28;20464;-75
2023/07/15 03:03:12;;;;;;;6.20;3.85;;;;;;;;;;5034697;28;20045;-75
2023/07/15 03:05:39;;;;;;;5.32;3.70;;;;;;;;;;5019232;28;20045;-75
2023/07/15 03:08:05;;;;;;;6.28;3.83;;;;;;;;;;5016240;28;20049;-75
2023/07/15 03:10:31;;;;;;;4.80;3.50;;;;;;;;;;5032003;28;20128;-75
2023/07/15 03:12:57;;;;;;;6.03;3.72;;;;;;;;;;5034936;28;20132;-75
2023/07/15 03:15:23;;;;;;;4.13;3.55;;;;;;;;;;5032462;28;20172;-75
2023/07/15 03:17:49;;;;;;;7.30;3.80;;;;;;;;;;5035806;28;20136;-75
2023/07/15 03:20:23;;;;;;;5.05;3.72;;;;;;;;;;5035476;28;20041;-75
2023/07/15 03:22:49;;;;;;;6.25;4.00;;;;;;;;;;5035663;28;20457;-75
2023/07/15 03:25:16;;;;;;;5.32;3.80;;;;;;;;;;5033946;28;20034;-75
2023/07/15 03:27:42;;;;;;;6.60;3.78;;;;;;;;;;5021455;28;20102;-75
2023/07/15 03:30:09;;;;;;;5.38;3.63;;;;;;;;;;5025487;28;20057;-75
2023/07/15 03:32:36;;;;;;;5.22;3.70;;;;;;;;;;5035244;28;20507;-75
2023/07/15 03:35:05;;;;;;;6.50;4.00;;;;;;;;;;5034494;28;20041;-75
2023/07/15 03:37:31;;;;;;;7.30;3.80;;;;;;;;;;5035206;28;20362;-75
2023/07/15 03:39:58;;;;;;;6.25;3.50;;;;;;;;;;5035818;28;20046;-75
2023/07/15 03:42:25;;;;;;;5.90;3.80;;;;;;;;;;5035168;28;20041;-75
2023/07/15 03:44:51;;;;;;;6.85;3.95;;;;;;;;;;5027795;28;20042;-75
2023/07/15 03:47:17;;;;;;;6.43;3.97;;;;;;;;;;5016229;28;20041;-75
2023/07/15 03:49:43;;;;;;;6.30;3.95;;;;;;;;;;5015265;28;20137;-75
2023/07/15 03:52:09;;;;;;;5.43;4.10;;;;;;;;;;5015361;28;20045;-75
2023/07/15 03:54:36;;;;;;;5.32;3.90;;;;;;;;;;5019698;28;20065;-75
2023/07/15 03:57:02;;;;;;;5.20;3.88;;;;;;;;;;5034125;28;20037;-75
2023/07/15 03:59:28;;;;;;;7.45;4.15;;;;;;;;;;5034912;28;20041;-75
2023/07/15 04:01:54;;;;;;;7.93;4.10;;;;;;;;;;5033895;28;20073;-75
2023/07/15 04:04:21;;;;;;;5.45;3.63;;;;;;;;;;5034364;28;20046;-75
2023/07/15 04:06:47;;;;;;;6.18;3.97;;;;;;;;;;5034588;28;20100;-75
2023/07/15 04:09:14;;;;;;;5.35;3.95;;;;;;;;;;5034915;28;20368;-75
2023/07/15 04:11:40;;;;;;;7.85;4.38;;;;;;;;;;5033394;28;20037;-75
2023/07/15 04:14:06;;;;;;;6.18;3.97;;;;;;;;;;5032527;28;20403;-75
2023/07/15 04:16:32;;;;;;;4.68;4.18;;;;;;;;;;5034061;28;20048;-75
2023/07/15 04:18:58;;;;;;;5.85;4.20;;;;;;;;;;5034768;28;20167;-75
2023/07/15 04:21:24;;;;;;;6.43;4.63;;;;;;;;;;5033011;28;20068;-75
2023/07/15 04:23:52;;;;;;;7.97;4.53;;;;;;;;;;5019098;28;20057;-75
2023/07/15 04:26:22;;;;;;;6.47;4.28;;;;;;;;;;5020638;28;20045;-75
2023/07/15 04:28:48;;;;;;;7.18;4.50;;;;;;;;;;5033988;28;20049;-75
2023/07/15 04:31:14;;;;;;;6.40;4.22;;;;;;;;;;5034094;28;20076;-75
2023/07/15 04:33:40;;;;;;;5.82;4.18;;;;;;;;;;5033933;28;20037;-75
2023/07/15 04:36:06;;;;;;;5.50;4.22;;;;;;;;;;5034112;28;20053;-75
2023/07/15 04:38:33;;;;;;;5.63;4.50;;;;;;;;;;5034173;28;20041;-75
2023/07/15 04:40:59;;;;;;;6.05;4.40;;;;;;;;;;5033140;28;20124;-75
2023/07/15 04:43:25;;;;;;;5.80;4.40;;;;;;;;;;5032047;28;20041;-75
2023/07/15 04:45:51;;;;;;;6.00;4.53;;;;;;;;;;5014259;28;20096;-75
2023/07/15 04:48:17;;;;;;;7.03;4.72;;;;;;;;;;5015951;28;20045;-75
2023/07/15 04:50:43;;;;;;;6.93;4.88;;;;;;;;;;5029722;28;20437;-75
2023/07/15 04:53:10;;;;;;;8.23;4.75;;;;;;;;;;5032687;28;20113;-75
2023/07/15 04:55:36;;;;;;;8.73;4.60;;;;;;;;;;5033106;28;20496;-75
2023/07/15 04:58:02;;;;;;;7.63;4.47;;;;;;;;;;5020359;28;20076;-75
2023/07/15 05:00:29;;;;;;;5.70;4.80;;;;;;;;;;5031646;28;20049;-75
2023/07/15 05:02:55;;;;;;;6.47;4.47;;;;;;;;;;5031897;28;20061;-75
2023/07/15 05:05:21;;;;;;;6.90;4.80;;;;;;;;;;5033314;28;20381;-75
2023/07/15 05:07:50;;;;;;;8.98;4.20;;;;;;;;;;5033031;28;20088;-75
2023/07/15 05:10:16;;;;;;;6.80;4.35;;;;;;;;;;5032007;28;20084;-75
2023/07/15 05:12:42;;;;;;;7.22;4.00;;;;;;;;;;5032854;28;20518;-75
2023/07/15 05:15:09;;;;;;;6.03;4.22;;;;;;;;;;5032206;28;20053;-75
2023/07/15 05:17:36;;;;;;;5.97;4.28;;;;;;;;;;5031532;28;20124;-75
2023/07/15 05:20:03;;;;;;;7.85;4.40;;;;;;;;;;5031258;28;20042;-75
2023/07/15 05:22:29;;;;;;;5.70;4.10;;;;;;;;;;5032772;28;20050;-75
2023/07/15 05:24:55;;;;;;;10.70;4.65;;;;;;;;;;5032988;28;20432;-75
2023/07/15 05:27:21;;;;;;;5.95;4.10;;;;;;;;;;5033404;28;20060;-75
2023/07/15 05:29:47;;;;;;;8.45;4.28;;;;;;;;;;5032397;28;20053;-75
2023/07/15 05:32:13;;;;;;;7.82;4.35;;;;;;;;;;5032862;28;20068;-75
2023/07/15 05:34:39;;;;;;;5.15;4.30;;;;;;;;;;5033016;28;20050;-75
2023/07/15 05:37:05;;;;;;;7.32;4.43;;;;;;;;;;5032692;28;20077;-75
2023/07/15 05:39:32;;;;;;;6.22;4.35;;;;;;;;;;5031755;28;20121;-75
2023/07/15 05:41:58;;;;;;;7.10;4.50;;;;;;;;;;5032810;28;20041;-75
2023/07/15 05:44:25;;;;;;;6.07;4.70;;;;;;;;;;5033215;28;20096;-78
2023/07/15 05:46:51;;;;;;;8.45;4.93;;;;;;;;;;5040542;28;20372;-79
2023/07/15 05:49:17;;;;;;;6.50;4.50;;;;;;;;;;5043543;28;20053;-79
2023/07/15 05:51:44;;;;;;;8.05;5.07;;;;;;;;;;5042972;28;20732;-79
2023/07/15 05:54:10;;;;;;;8.07;4.60;;;;;;;;;;5042493;28;20076;-78
2023/07/15 05:56:36;;;;;;;9.02;4.93;;;;;;;;;;5040493;28;20404;-78
2023/07/15 05:59:02;;;;;;;6.45;5.07;;;;;;;;;;5024244;28;20053;-79
2023/07/15 06:01:28;;;;;;;6.30;5.07;;;;;;;;;;5043168;28;20034;-79
2023/07/15 06:03:54;;;;;;;8.00;4.57;;;;;;;;;;5036152;28;20072;-78
2023/07/15 06:06:20;;;;;;;7.32;4.75;;;;;;;;;;5043900;28;20130;-78
2023/07/15 06:08:46;;;;;;;6.13;4.57;;;;;;;;;;5045403;28;20041;-79
2023/07/15 06:11:12;;;;;;;5.90;4.40;;;;;;;;;;5025191;28;20100;-79
2023/07/15 06:13:38;;;;;;;5.20;4.05;;;;;;;;;;5025559;28;20073;-78
2023/07/15 06:16:04;;;;;;;5.38;4.10;;;;;;;;;;5027572;28;20053;-79
2023/07/15 06:18:31;;;;;;;4.75;3.80;;;;;;;;;;5043849;28;20156;-78
2023/07/15 06:20:57;;;;;;;4.68;3.70;;;;;;;;;;5043691;28;20041;-78
2023/07/15 06:23:23;;;;;;;4.55;3.70;;;;;;;;;;5042845;28;20045;-78
2023/07/15 06:25:49;;;;;;;4.68;3.75;;;;;;;;;;5022313;28;20068;-78
2023/07/15 06:28:16;;;;;;;4.75;3.60;;;;;;;;;;5038466;28;20050;-78
2023/07/15 06:30:42;;;;;;;5.88;3.90;;;;;;;;;;5039197;28;20399;-79
2023/07/15 06:33:08;;;;;;;6.35;3.60;;;;;;;;;;5037577;28;20088;-78
2023/07/15 06:35:34;;;;;;;4.88;3.67;;;;;;;;;;5024267;28;20042;-79
2023/07/15 06:38:00;;;;;;;6.72;4.03;;;;;;;;;;5022364;28;20050;-79
2023/07/15 06:40:26;;;;;;;4.65;4.00;;;;;;;;;;5023059;28;20045;-78
2023/07/15 06:42:52;;;;;;;5.70;3.85;;;;;;;;;;5025783;28;20060;-78
2023/07/15 06:45:21;;;;;;;5.20;3.75;;;;;;;;;;5041137;28;20072;-79
2023/07/15 06:47:47;;;;;;;4.65;3.80;;;;;;;;;;5036847;28;20050;-79
2023/07/15 06:50:13;;;;;;;5.40;3.95;;;;;;;;;;5040269;28;20104;-79
2023/07/15 06:52:39;;;;;;;5.60;3.50;;;;;;;;;;5044018;28;20045;-80
2023/07/15 06:55:06;;;;;;;4.60;3.15;;;;;;;;;;5043658;28;20484;-80
2023/07/15 06:57:32;;;;;;;4.20;2.83;;;;;;;;;;5032793;28;20100;-80
2023/07/15 06:59:58;;;;;;;4.38;2.85;;;;;;;;;;5040429;28;20472;-80
2023/07/15 07:02:24;;;;;;;4.00;3.20;;;;;;;;;;5032714;28;20045;-80
2023/07/15 07:04:50;;;;;;;3.20;2.58;;;;;;;;;;5037308;28;20059;-79
2023/07/15 07:07:17;;;;;;;2.80;2.50;;;;;;;;;;5038293;28;20080;-79
2023/07/15 07:09:43;;;;;;;5.65;2.50;;;;;;;;;;5040089;28;20053;-80
2023/07/15 07:12:09;;;;;;;4.53;2.47;;;;;;;;;;5040237;28;20500;-80
2023/07/15 07:14:36;;;;;;;2.70;2.40;;;;;;;;;;5039748;28;20051;-80
2023/07/15 07:17:02;;;;;;;4.50;2.40;;;;;;;;;;5039349;28;20474;-80
2023/07/15 07:19:29;;;;;;;3.90;2.42;;;;;;;;;;5028903;28;20125;-80
2023/07/15 07:21:55;;;;;;;5.20;2.40;;;;;;;;;;5016859;28;20057;-80
2023/07/15 07:24:22;;;;;;;5.72;2.83;;;;;;;;;;5020679;28;20037;-80
2023/07/15 07:26:49;;;;;;;4.45;2.53;;;;;;;;;;5037558;28;20130;-80
2023/07/15 07:29:15;;;;;;;3.85;2.65;;;;;;;;;;5039293;28;20061;-80
2023/07/15 07:31:41;;;;;;;3.85;2.47;;;;;;;;;;5039628;28;20093;-80
2023/07/15 07:34:07;;;;;;;4.68;2.55;;;;;;;;;;5038821;28;20057;-80
2023/07/15 07:36:33;;;;;;;4.57;2.67;;;;;;;;;;5036399;28;20048;-79
2023/07/15 07:38:59;;;;;;;3.65;2.30;;;;;;;;;;5032392;28;20034;-79
2023/07/15 07:41:25;;;;;;;3.08;2.40;;;;;;;;;;5016883;28;20130;-79
2023/07/15 07:43:51;;;;;;;3.50;2.70;;;;;;;;;;5017958;28;20061;-79
2023/07/15 07:46:17;;;;;;;4.65;2.45;;;;;;;;;;5016383;28;20053;-79
2023/07/15 07:48:43;;;;;;;3.97;2.63;;;;;;;;;;5018412;28;20041;-79
2023/07/15 07:51:09;;;;;;;3.50;2.80;;;;;;;;;;5036280;28;20042;-80
2023/07/15 07:53:35;;;;;;;4.35;2.53;;;;;;;;;;5036188;28;20061;-79
2023/07/15 07:56:01;;;;;;;5.10;2.78;;;;;;;;;;5036341;28;20091;-79
2023/07/15 07:58:27;;;;;;;5.32;2.80;;;;;;;;;;5036105;28;20052;-80
2023/07/15 08:00:54;;;;;;;3.92;3.15;;;;;;;;;;5037702;28;20085;-79
2023/07/15 08:03:20;;;;;;;3.50;2.70;;;;;;;;;;5034552;28;20084;-80
2023/07/15 08:05:47;;;;;;;4.60;2.97;;;;;;;;;;5038308;28;20049;-79
2023/07/15 08:08:14;;;;;;;3.65;2.92;;;;;;;;;;5037558;28;20045;-80
2023/07/15 08:10:40;;;;;;;4.47;2.63;;;;;;;;;;5037133;28;20057;-80
2023/07/15 08:13:07;;;;;;;4.55;2.45;;;;;;;;;;5037663;28;20041;-79
2023/07/15 08:15:36;;;;;;;3.00;2.00;;;;;;;;;;5038355;28;20045;-79
2023/07/15 08:18:03;;;;;;;2.60;1.92;;;;;;;;;;5036862;28;20402;-79
2023/07/15 08:20:29;;;;;;;3.92;2.22;;;;;;;;;;5035467;28;20053;-79
2023/07/15 08:22:56;;;;;;;3.97;1.90;;;;;;;;;;5035472;28;20117;-79
2023/07/15 08:25:22;;;;;;;2.45;2.00;;;;;;;;;;5036327;28;20045;-79
2023/07/15 08:27:48;;;;;;;3.10;1.80;;;;;;;;;;5036160;28;20140;-79
2023/07/15 08:30:14;;;;;;;3.47;2.05;;;;;;;;;;5017289;28;20050;-80
2023/07/15 08:32:41;;;;;;;2.67;1.90;;;;;;;;;;5015058;28;20054;-79
2023/07/15 08:35:07;;;;;;;4.13;2.00;;;;;;;;;;5015624;28;20045;-79
2023/07/15 08:37:33;;;;;;;4.15;1.92;;;;;;;;;;5014877;28;20100;-79
2023/07/15 08:39:59;;;;;;;4.55;2.20;;;;;;;;;;5016754;28;20054;-79
2023/07/15 08:42:25;;;;;;;3.08;1.80;;;;;;;;;;5029037;28;20132;-79
2023/07/15 08:44:51;;;;;;;4.82;2.22;;;;;;;;;;5028888;28;20095;-79
2023/07/15 08:47:22;;;;;;;3.05;2.00;;;;;;;;;;5016561;28;20056;-79
2023/07/15 08:49:48;;;;;;;3.28;1.90;;;;;;;;;;5016231;28;20045;-79
2023/07/15 08:52:21;;;;;;;3.72;2.20;;;;;;;;;;5014443;28;20041;-81
2023/07/15 08:54:48;;;;;;;4.35;2.47;;;;;;;;;;5014028;28;20145;-80
2023/07/15 08:57:15;;;;;;;4.45;2.35;;;;;;;;;;5023500;28;20045;-81
2023/07/15 08:59:41;;;;;;;3.65;1.88;;;;;;;;;;5033440;28;20041;-80
2023/07/15 09:02:07;;;;;;;2.63;1.80;;;;;;;;;;5034826;28;20041;-81
2023/07/15 09:04:33;;;;;;;4.00;2.17;;;;;;;;;;5034834;28;20445;-79
2023/07/15 09:06:59;;;;;;;2.83;2.00;;;;;;;;;;5034468;28;20045;-79
2023/07/15 09:09:32;;;;;;;4.70;2.42;;;;;;;;;;5034235;28;20041;-80
2023/07/15 09:12:02;;;;;;;2.90;2.00;;;;;;;;;;5034068;28;20041;-84
2023/07/15 09:14:28;;;;;;;4.65;2.97;;;;;;;;;;5034899;28;20064;-80
2023/07/15 09:16:55;;;;;;;3.80;2.92;;;;;;;;;;5033086;28;20048;-80
2023/07/15 09:19:24;;;;;;;5.72;2.50;;;;;;;;;;5014936;28;20054;-80
2023/07/15 09:21:51;;;;;;;4.43;2.60;;;;;;;;;;5024599;28;20057;-80
2023/07/15 09:24:18;;;;;;;3.30;2.13;;;;;;;;;;5025166;28;20077;-80
2023/07/15 09:26:47;;;;;;;4.95;2.15;;;;;;;;;;5044707;28;20052;-82
2023/07/15 09:29:13;;;;;;;4.50;2.40;;;;;;;;;;5041560;28;20150;-81
2023/07/15 09:31:39;;;;;;;3.50;2.20;;;;;;;;;;5040175;28;20127;-80
2023/07/15 09:34:05;;;;;;;5.03;2.50;;;;;;;;;;5040459;28;20484;-80
2023/07/15 09:36:32;;;;;;;3.95;2.00;;;;;;;;;;5021523;28;20085;-80
2023/07/15 09:39:02;;;;;;;4.75;2.28;;;;;;;;;;5025334;28;20111;-83
2023/07/15 09:41:28;;;;;;;2.80;1.98;;;;;;;;;;5038042;28;20045;-81
2023/07/15 09:43:54;;;;;;;3.35;2.10;;;;;;;;;;5039758;28;20049;-81
2023/07/15 09:46:22;;;;;;;5.20;2.30;;;;;;;;;;5038594;28;20400;-80
2023/07/15 09:48:49;;;;;;;3.90;2.28;;;;;;;;;;5039166;28;20053;-83
2023/07/15 09:51:15;;;;;;;3.25;2.25;;;;;;;;;;5038422;28;20425;-80
2023/07/15 09:53:49;;;;;;;4.38;2.60;;;;;;;;;;5034885;28;20038;-80
2023/07/15 09:56:17;;;;;;;6.13;2.63;;;;;;;;;;5038294;28;20045;-81
2023/07/15 09:58:47;;;;;;;3.92;2.30;;;;;;;;;;5038637;28;20048;-81
2023/07/15 10:01:33;;;;;;;5.40;2.28;;;;;;;;;;5038146;28;20053;-84
2023/07/15 10:04:07;;;;;;;7.57;2.92;;;;;;;;;;5036572;28;20073;-81
2023/07/15 10:06:34;;;;;;;5.03;2.30;;;;;;;;;;5037014;28;20057;-81
2023/07/15 10:09:01;;;;;;;3.50;2.00;;;;;;;;;;5038902;28;20316;-82
2023/07/15 10:11:27;;;;;;;3.70;2.55;;;;;;;;;;5038137;28;20101;-81
2023/07/15 10:13:54;;;;;;;5.30;2.35;;;;;;;;;;5039083;28;20050;-81
2023/07/15 10:16:20;;;;;;;3.20;2.10;;;;;;;;;;5038811;28;20046;-81
2023/07/15 10:18:46;;;;;;;4.28;2.33;;;;;;;;;;5038070;28;20037;-81
2023/07/15 10:21:15;;;;;;;3.05;2.10;;;;;;;;;;5037969;28;20089;-81
2023/07/15 10:23:41;;;;;;;5.40;2.45;;;;;;;;;;5029514;28;20127;-81
2023/07/15 10:26:08;;;;;;;4.72;2.40;;;;;;;;;;5040887;28;20041;-80
2023/07/15 10:28:35;;;;;;;3.83;2.22;;;;;;;;;;5041012;28;20053;-81
2023/07/15 10:31:11;;;;;;;3.47;2.00;;;;;;;;;;5041245;28;20049;-81
2023/07/15 10:33:52;;;;;;;4.10;2.45;;;;;;;;;;5027442;28;20038;-81
2023/07/15 10:36:34;;;;;;;4.78;2.75;;;;;;;;;;5027149;28;20057;-81
2023/07/15 10:39:09;;;;;;;3.10;2.20;;;;;;;;;;5040719;28;20054;-81
2023/07/15 10:41:45;;;;;;;5.45;2.70;;;;;;;;;;5038714;28;20101;-81
2023/07/15 10:44:24;;;;;;;4.53;2.35;;;;;;;;;;5034500;28;20103;-79
2023/07/15 10:46:52;;;;;;;3.42;2.25;;;;;;;;;;5035494;28;20049;-79
2023/07/15 10:49:21;;;;;;;4.05;2.42;;;;;;;;;;5038783;28;20049;-79
2023/07/15 10:51:47;;;;;;;4.22;2.40;;;;;;;;;;5040260;28;20041;-79
2023/07/15 10:54:18;;;;;;;4.72;2.17;;;;;;;;;;5029142;28;20060;-79
2023/07/15 10:56:44;;;;;;;4.50;2.60;;;;;;;;;;5035770;28;20054;-79
2023/07/15 10:59:10;;;;;;;4.68;2.55;;;;;;;;;;5018678;28;20050;-79
2023/07/15 11:01:37;;;;;;;3.22;2.30;;;;;;;;;;5031028;28;20045;-79
2023/07/15 11:04:06;;;;;;;5.18;2.60;;;;;;;;;;5039737;28;20480;-79
2023/07/15 11:06:34;;;;;;;3.03;2.30;;;;;;;;;;5039107;28;20045;-79
2023/07/15 11:09:12;;;;;;;4.03;2.20;;;;;;;;;;5037543;28;20049;-79
2023/07/15 11:11:38;;;;;;;2.47;1.98;;;;;;;;;;5039353;28;20073;-79
2023/07/15 11:14:05;;;;;;;2.72;1.90;;;;;;;;;;5033747;28;20397;-79
2023/07/15 11:16:31;;;;;;;3.95;2.00;;;;;;;;;;5021984;28;20046;-79
2023/07/15 11:18:58;;;;;;;2.50;2.20;;;;;;;;;;5019950;28;20102;-79
2023/07/15 11:21:24;;;;;;;3.05;2.00;;;;;;;;;;5037665;28;20053;-79
2023/07/15 11:23:50;;;;;;;2.90;2.05;;;;;;;;;;5038347;28;20042;-79
2023/07/15 11:26:16;;;;;;;3.83;2.25;;;;;;;;;;5038035;28;20377;-79
2023/07/15 11:28:49;;;;;;;4.47;2.22;;;;;;;;;;5037369;28;20385;-79
2023/07/15 11:31:15;;;;;;;3.65;2.10;;;;;;;;;;5037759;28;20046;-79
2023/07/15 11:33:41;;;;;;;2.42;1.90;;;;;;;;;;5034344;28;20162;-79
2023/07/15 11:36:07;;;;;;;3.92;2.10;;;;;;;;;;5033663;28;20034;-79
2023/07/15 11:38:34;;;;;;;3.95;2.40;;;;;;;;;;5040521;28;20053;-79
2023/07/15 11:41:00;;;;;;;4.20;2.42;;;;;;;;;;5028637;28;20042;-79
2023/07/15 11:43:27;;;;;;;3.25;2.30;;;;;;;;;;5027268;28;20567;-80
2023/07/15 11:45:56;;;;;;;3.17;2.63;;;;;;;;;;5040185;28;20052;-79
2023/07/15 11:48:23;;;;;;;3.50;2.90;;;;;;;;;;5035151;28;20572;-79
2023/07/15 11:50:50;;;;;;;4.10;3.10;;;;;;;;;;5039144;28;20038;-77
2023/07/15 11:53:23;;;;;;;4.25;2.70;;;;;;;;;;5042014;28;20396;-79
2023/07/15 11:55:49;;;;;;;4.30;2.55;;;;;;;;;;5040633;28;20053;-78
2023/07/15 11:58:35;;;;;;;3.08;2.58;;;;;;;;;;5040989;28;20053;-78
2023/07/15 12:01:01;;;;;;;2.88;2.33;;;;;;;;;;5035428;28;20057;-79
2023/07/15 12:03:27;;;;;;;3.40;2.45;;;;;;;;;;5039604;28;20064;-79
2023/07/15 12:05:53;;;;;;;3.17;2.53;;;;;;;;;;5036866;28;20045;-78
2023/07/15 12:08:19;;;;;;;2.70;2.30;;;;;;;;;;5034722;28;20577;-78
2023/07/15 12:10:54;;;;;;;3.42;2.33;;;;;;;;;;5033827;28;20041;-78
2023/07/15 12:13:21;;;;;;;3.60;2.50;;;;;;;;;;5029734;28;20038;-78
2023/07/15 12:15:47;;;;;;;5.07;2.50;;;;;;;;;;5014926;28;20456;-78
2023/07/15 12:18:13;;;;;;;2.70;2.40;;;;;;;;;;5013629;28;20169;-78
2023/07/15 12:20:39;;;;;;;3.60;2.35;;;;;;;;;;5016866;28;20038;-78
2023/07/15 12:23:05;;;;;;;3.50;2.53;;;;;;;;;;5017514;28;20041;-79
2023/07/15 12:25:32;;;;;;;4.75;2.60;;;;;;;;;;5026503;28;20444;-79
2023/07/15 12:27:58;;;;;;;4.82;2.40;;;;;;;;;;5040381;28;20061;-79
2023/07/15 12:30:24;;;;;;;3.38;2.47;;;;;;;;;;5040767;28;20411;-79
2023/07/15 12:32:50;;;;;;;3.67;2.33;;;;;;;;;;5040970;28;20068;-79
2023/07/15 12:35:16;;;;;;;3.58;2.35;;;;;;;;;;5039744;28;20048;-79
2023/07/15 12:37:43;;;;;;;3.83;2.80;;;;;;;;;;5029117;28;20127;-78
2023/07/15 12:40:09;;;;;;;3.50;2.67;;;;;;;;;;5026123;28;20540;-78
2023/07/15 12:42:35;;;;;;;3.42;2.40;;;;;;;;;;5020323;28;20038;-78
2023/07/15 12:45:02;;;;;;;3.20;2.47;;;;;;;;;;5017652;28;20061;-84
2023/07/15 12:47:28;;;;;;;4.03;2.70;;;;;;;;;;5035609;28;20068;-81
2023/07/15 12:49:55;;;;;;;3.58;2.60;;;;;;;;;;5037654;28;20037;-78
2023/07/15 12:52:21;;;;;;;3.85;2.70;;;;;;;;;;5022154;28;20119;-78
2023/07/15 12:54:47;;;;;;;5.80;2.67;;;;;;;;;;5016096;28;20125;-78
2023/07/15 12:57:13;;;;;;;3.97;2.85;;;;;;;;;;5016023;28;20069;-78
2023/07/15 12:59:39;;;;;;;4.55;2.40;;;;;;;;;;5014286;28;20093;-78
2023/07/15 13:02:05;;;;;;;4.55;2.50;;;;;;;;;;5018623;28;20103;-79
2023/07/15 13:04:31;;;;;;;2.78;2.47;;;;;;;;;;5033583;28;20045;-79
2023/07/15 13:06:57;;;;;;;4.53;2.60;;;;;;;;;;5034249;28;20045;-79
2023/07/15 13:09:23;;;;;;;3.42;2.45;;;;;;;;;;5034430;28;20045;-79
2023/07/15 13:11:50;;;;;;;4.10;2.58;;;;;;;;;;5034260;28;20045;-78
2023/07/15 13:14:16;;;;;;;4.75;2.80;;;;;;;;;;5033552;28;20452;-81
2023/07/15 13:16:42;;;;;;;4.13;2.70;;;;;;;;;;5033730;28;20060;-79
2023/07/15 13:19:09;;;;;;;3.45;2.40;;;;;;;;;;5027519;28;20495;-78
2023/07/15 13:21:35;;;;;;;3.65;2.58;;;;;;;;;;5033662;28;20060;-80
2023/07/15 13:24:01;;;;;;;2.75;2.38;;;;;;;;;;5044161;28;20142;-80
2023/07/15 13:26:27;;;;;;;4.10;2.67;;;;;;;;;;5045964;28;20081;-80
2023/07/15 13:28:53;;;;;;;4.68;3.05;;;;;;;;;;5030648;28;20046;-79
2023/07/15 13:31:19;;;;;;;3.83;2.67;;;;;;;;;;5046032;28;20056;-80
2023/07/15 13:33:45;;;;;;;4.10;2.80;;;;;;;;;;5047730;28;20045;-80
2023/07/15 13:36:11;;;;;;;3.65;2.88;;;;;;;;;;5040452;28;20058;-80
2023/07/15 13:38:38;;;;;;;3.60;2.63;;;;;;;;;;5044943;28;20096;-80
2023/07/15 13:41:04;;;;;;;4.22;2.80;;;;;;;;;;5042243;28;20048;-81
2023/07/15 13:43:30;;;;;;;4.05;2.85;;;;;;;;;;5044858;28;20063;-80
2023/07/15 13:45:56;;;;;;;6.90;3.30;;;;;;;;;;5047851;28;20052;-80
2023/07/15 13:48:22;;;;;;;4.60;2.88;;;;;;;;;;5047347;28;20037;-80
2023/07/15 13:50:48;;;;;;;4.50;3.05;;;;;;;;;;5047464;28;20052;-80
2023/07/15 13:53:14;;;;;;;5.28;3.28;;;;;;;;;;5048636;28;20075;-80
2023/07/15 13:55:40;;;;;;;4.57;3.20;;;;;;;;;;5048155;28;20037;-80
2023/07/15 13:58:06;;;;;;;5.00;3.20;;;;;;;;;;5053772;28;20055;-80
2023/07/15 14:00:33;;;;;;;3.25;2.95;;;;;;;;;;5042006;28;20041;-80
2023/07/15 14:02:59;;;;;;;3.58;2.95;;;;;;;;;;5052904;28;20041;-80
2023/07/15 14:05:25;;;;;;;3.92;3.08;;;;;;;;;;5044563;28;20381;-80
2023/07/15 14:07:51;;;;;;;4.50;3.03;;;;;;;;;;5033067;28;20145;-80
2023/07/15 14:10:17;;;;;;;4.22;3.00;;;;;;;;;;5032606;28;20384;-80
2023/07/15 14:12:43;;;;;;;6.97;3.17;;;;;;;;;;5031929;28;20046;-80
2023/07/15 14:15:09;;;;;;;3.42;2.65;;;;;;;;;;5029587;28;20195;-80
2023/07/15 14:17:35;;;;;;;3.58;3.13;;;;;;;;;;5048635;28;20046;-80
2023/07/15 14:20:02;;;;;;;2.95;2.60;;;;;;;;;;5044868;28;20090;-80
2023/07/15 14:22:28;;;;;;;3.47;2.50;;;;;;;;;;5051859;28;20556;-80
2023/07/15 14:24:54;;;;;;;4.05;2.72;;;;;;;;;;5038828;28;20499;-80
2023/07/15 14:27:20;;;;;;;4.05;2.85;;;;;;;;;;5031090;28;20477;-80
2023/07/15 14:29:46;;;;;;;4.15;2.67;;;;;;;;;;5031720;28;20370;-80
2023/07/15 14:32:12;;;;;;;3.65;2.75;;;;;;;;;;5048037;28;20053;-80
2023/07/15 14:34:38;;;;;;;4.30;2.95;;;;;;;;;;5046022;28;20073;-80
2023/07/15 14:37:04;;;;;;;6.45;3.20;;;;;;;;;;5033367;28;20115;-81
2023/07/15 14:39:30;;;;;;;4.43;3.00;;;;;;;;;;5035895;28;20052;-80
2023/07/15 14:41:56;;;;;;;4.35;3.13;;;;;;;;;;5028996;28;20049;-80